Time;durP1;ratioP1;P1;durP2;ratioP2;P2;SDS_P1;SDS_P2;PMS_P1;PMS_P2;Temp;Humidity;BMP_temperature;BMP_pressure;BME280_temperature;BME280_humidity;BME280_pressure;Samples;Min_cycle;Max_cycle;Signal;HPM_P1;HPM_P2
2023/03/09 00:00:54;;;;;;;3.53;2.40;;;8.20;99.90;;;;;;5027740;28;20462;-57
2023/03/09 00:03:20;;;;;;;2.83;2.13;;;8.20;99.90;;;;;;5027425;28;20218;-57
2023/03/09 00:05:58;;;;;;;3.93;1.90;;;8.20;99.90;;;;;;5030459;28;20652;-57
2023/03/09 00:08:24;;;;;;;2.33;2.13;;;8.20;99.90;;;;;;5022469;28;20450;-57
2023/03/09 00:10:52;;;;;;;2.43;2.20;;;8.20;99.90;;;;;;5026862;28;20505;-57
2023/03/09 00:13:18;;;;;;;2.13;2.00;;;8.20;99.90;;;;;;5026537;28;20423;-56
2023/03/09 00:15:49;;;;;;;2.23;1.90;;;8.20;99.90;;;;;;5031607;28;20464;-57
2023/03/09 00:18:19;;;;;;;3.10;2.23;;;8.30;99.90;;;;;;5024799;28;20477;-57
2023/03/09 00:20:45;;;;;;;2.10;1.80;;;8.30;99.90;;;;;;5026035;28;20431;-57
2023/03/09 00:23:11;;;;;;;2.20;2.10;;;8.30;99.90;;;;;;5027031;28;20488;-57
2023/03/09 00:25:37;;;;;;;4.80;2.60;;;8.30;99.90;;;;;;5018723;28;20439;-57
2023/03/09 00:28:05;;;;;;;2.80;2.60;;;8.30;99.90;;;;;;5029153;28;20710;-57
2023/03/09 00:30:30;;;;;;;2.93;2.43;;;8.30;99.90;;;;;;5027978;28;20415;-57
2023/03/09 00:32:56;;;;;;;2.23;2.13;;;8.30;99.90;;;;;;5028697;28;20791;-63
2023/03/09 00:35:21;;;;;;;2.93;2.50;;;8.30;99.90;;;;;;5028297;28;20172;-56
2023/03/09 00:37:47;;;;;;;3.67;2.57;;;8.30;99.90;;;;;;5027013;28;20191;-57
2023/03/09 00:40:14;;;;;;;4.63;2.33;;;8.30;99.90;;;;;;5025620;28;20187;-57
2023/03/09 00:42:44;;;;;;;2.57;2.33;;;8.30;99.90;;;;;;5023451;28;20286;-57
2023/03/09 00:45:11;;;;;;;4.73;2.70;;;8.30;99.90;;;;;;5029268;28;21157;-57
2023/03/09 00:47:37;;;;;;;2.47;2.27;;;8.30;99.90;;;;;;5027064;28;20481;-57
2023/03/09 00:50:04;;;;;;;3.97;2.30;;;8.30;99.90;;;;;;5027550;28;20438;-58
2023/03/09 00:52:30;;;;;;;7.77;2.10;;;8.30;99.90;;;;;;5024761;28;20577;-57
2023/03/09 00:54:56;;;;;;;3.90;2.27;;;8.30;99.90;;;;;;5028653;28;20441;-58
2023/03/09 00:57:23;;;;;;;2.13;1.80;;;8.30;99.90;;;;;;5021415;28;20458;-57
2023/03/09 00:59:50;;;;;;;1.70;1.60;;;8.30;99.90;;;;;;5023294;28;20430;-57
2023/03/09 01:02:16;;;;;;;1.50;1.40;;;8.30;99.90;;;;;;5027638;28;20465;-59
2023/03/09 01:04:41;;;;;;;2.17;1.40;;;8.20;99.90;;;;;;5024252;28;20427;-57
2023/03/09 01:07:07;;;;;;;2.07;1.30;;;8.20;99.90;;;;;;5024682;28;20554;-57
2023/03/09 01:09:32;;;;;;;1.37;1.30;;;8.20;99.90;;;;;;5021968;28;20267;-59
2023/03/09 01:11:58;;;;;;;1.03;1.03;;;8.20;99.90;;;;;;5020491;28;20207;-57
2023/03/09 01:14:24;;;;;;;3.93;1.37;;;8.20;99.90;;;;;;5023563;28;20649;-55
2023/03/09 01:16:49;;;;;;;1.40;1.20;;;8.10;99.90;;;;;;5027669;28;20198;-57
2023/03/09 01:19:15;;;;;;;1.67;1.30;;;8.10;99.90;;;;;;5023275;28;20281;-56
2023/03/09 01:21:40;;;;;;;2.30;1.33;;;8.10;99.90;;;;;;5019287;28;20199;-56
2023/03/09 01:24:06;;;;;;;1.60;1.50;;;8.00;99.90;;;;;;5028621;28;20570;-57
2023/03/09 01:26:31;;;;;;;1.40;1.30;;;8.00;99.90;;;;;;5019633;28;20179;-56
2023/03/09 01:28:58;;;;;;;3.13;1.90;;;8.00;99.90;;;;;;5029341;28;20251;-57
2023/03/09 01:31:24;;;;;;;1.90;1.47;;;8.00;99.90;;;;;;5021349;28;20181;-57
2023/03/09 01:33:49;;;;;;;1.70;1.47;;;8.00;99.90;;;;;;5028023;28;20449;-57
2023/03/09 01:36:17;;;;;;;1.50;1.20;;;8.00;99.90;;;;;;5023126;28;20656;-57
2023/03/09 01:38:44;;;;;;;1.70;1.60;;;8.00;99.90;;;;;;5027497;28;20552;-57
2023/03/09 01:41:11;;;;;;;1.77;1.30;;;8.00;99.90;;;;;;5024985;28;21014;-58
2023/03/09 01:43:39;;;;;;;2.40;1.80;;;8.00;99.90;;;;;;5023665;28;20511;-57
2023/03/09 01:46:20;;;;;;;1.77;1.40;;;7.90;99.90;;;;;;5026280;28;20441;-57
2023/03/09 01:48:48;;;;;;;2.20;1.43;;;7.90;99.90;;;;;;5018334;28;20469;-58
2023/03/09 01:51:14;;;;;;;2.70;1.50;;;7.90;99.90;;;;;;5025406;28;20449;-58
2023/03/09 01:53:40;;;;;;;2.10;1.90;;;7.90;99.90;;;;;;5026732;28;20901;-57
2023/03/09 01:56:06;;;;;;;2.30;1.30;;;7.90;99.90;;;;;;5022832;28;20179;-58
2023/03/09 01:58:33;;;;;;;4.83;1.43;;;7.90;99.90;;;;;;5021788;28;20460;-56
2023/03/09 02:00:59;;;;;;;1.53;1.43;;;7.90;99.90;;;;;;5028032;28;20527;-57
2023/03/09 02:03:32;;;;;;;2.40;1.50;;;7.90;99.90;;;;;;5019044;28;20422;-58
2023/03/09 02:06:11;;;;;;;3.43;2.00;;;7.90;99.90;;;;;;5017513;28;20293;-57
2023/03/09 02:08:43;;;;;;;7.63;1.73;;;8.00;99.90;;;;;;5028210;28;20430;-57
2023/03/09 02:11:12;;;;;;;4.87;1.80;;;8.00;99.90;;;;;;5022726;28;20426;-57
2023/03/09 02:13:43;;;;;;;5.70;2.03;;;8.10;99.90;;;;;;5023882;28;20453;-57
2023/03/09 02:16:08;;;;;;;3.97;1.70;;;8.10;99.90;;;;;;5027134;28;20438;-58
2023/03/09 02:18:34;;;;;;;2.27;1.40;;;8.10;99.90;;;;;;5024601;28;20446;-56
2023/03/09 02:21:32;;;;;;;7.80;1.80;;;8.00;99.90;;;;;;5022281;28;20207;-57
2023/03/09 02:24:15;;;;;;;11.03;1.60;;;8.00;99.90;;;;;;5019805;28;20211;-57
2023/03/09 02:26:54;;;;;;;3.63;1.50;;;8.00;99.90;;;;;;5022920;28;20421;-56
2023/03/09 02:29:20;;;;;;;3.37;1.30;;;7.90;99.90;;;;;;5025103;28;21037;-57
2023/03/09 02:31:45;;;;;;;1.33;1.23;;;7.90;99.90;;;;;;5024469;28;20517;-57
2023/03/09 02:34:11;;;;;;;3.50;1.40;;;7.90;99.90;;;;;;5025962;28;20172;-56
2023/03/09 02:36:37;;;;;;;3.93;1.33;;;7.90;99.90;;;;;;5025732;28;20171;-57
2023/03/09 02:39:33;;;;;;;3.80;1.77;;;7.90;99.90;;;;;;5026871;28;20267;-56
2023/03/09 02:41:59;;;;;;;2.70;1.67;;;7.90;99.90;;;;;;5024402;28;20258;-57
2023/03/09 02:44:26;;;;;;;7.17;2.07;;;7.90;99.90;;;;;;5028788;28;20406;-57
2023/03/09 02:46:51;;;;;;;3.60;1.60;;;7.90;99.90;;;;;;5023314;28;20669;-57
2023/03/09 02:49:17;;;;;;;2.33;1.60;;;7.90;99.90;;;;;;5024516;28;20422;-56
2023/03/09 02:51:43;;;;;;;4.80;1.80;;;7.90;99.90;;;;;;5027258;28;20176;-57
2023/03/09 02:54:09;;;;;;;3.33;1.40;;;7.90;99.90;;;;;;5027331;28;20184;-56
2023/03/09 02:56:34;;;;;;;2.47;1.60;;;7.90;99.90;;;;;;5021538;28;20208;-56
2023/03/09 02:59:02;;;;;;;4.80;1.70;;;7.90;99.90;;;;;;5032303;28;20198;-57
2023/03/09 03:01:28;;;;;;;5.33;2.20;;;7.90;99.90;;;;;;5022066;28;20219;-57
2023/03/09 03:03:53;;;;;;;6.73;1.50;;;7.90;99.90;;;;;;5031215;28;21091;-55
2023/03/09 03:06:19;;;;;;;5.67;1.70;;;8.00;99.90;;;;;;5027900;28;20458;-56
2023/03/09 03:08:45;;;;;;;3.77;2.17;;;8.00;99.90;;;;;;5026659;28;20183;-56
2023/03/09 03:11:10;;;;;;;4.73;1.60;;;8.00;99.90;;;;;;5022623;28;20734;-57
2023/03/09 03:13:36;;;;;;;7.10;2.10;;;8.10;99.90;;;;;;5024905;28;21075;-57
2023/03/09 03:16:02;;;;;;;4.43;1.63;;;8.10;99.90;;;;;;5029110;28;20175;-56
2023/03/09 03:18:29;;;;;;;3.63;1.40;;;8.10;99.90;;;;;;5031215;28;20214;-57
2023/03/09 03:20:55;;;;;;;8.70;2.30;;;8.20;99.90;;;;;;5023152;28;20470;-57
2023/03/09 03:23:20;;;;;;;7.30;2.13;;;8.20;99.90;;;;;;5023235;28;20440;-56
2023/03/09 03:25:46;;;;;;;1.80;1.30;;;8.20;99.90;;;;;;5024136;28;20254;-57
2023/03/09 03:28:11;;;;;;;5.70;1.30;;;8.10;99.90;;;;;;5029484;28;20199;-56
2023/03/09 03:30:37;;;;;;;1.30;1.10;;;8.00;99.90;;;;;;5024885;28;20645;-56
2023/03/09 03:33:03;;;;;;;1.97;0.90;;;7.80;99.90;;;;;;5021722;28;20246;-57
2023/03/09 03:35:28;;;;;;;1.67;1.00;;;7.60;99.90;;;;;;5028157;28;20182;-57
2023/03/09 03:37:54;;;;;;;4.30;0.70;;;7.40;99.90;;;;;;5030063;28;20278;-58
2023/03/09 03:40:20;;;;;;;0.90;0.90;;;7.40;99.90;;;;;;5024788;28;20178;-56
2023/03/09 03:42:46;;;;;;;2.70;0.90;;;7.30;99.90;;;;;;5027195;28;20800;-57
2023/03/09 03:45:12;;;;;;;0.80;0.80;;;7.30;99.90;;;;;;5026785;28;20763;-57
2023/03/09 03:47:37;;;;;;;0.80;0.80;;;7.20;99.90;;;;;;5023790;28;20833;-57
2023/03/09 03:50:03;;;;;;;0.80;0.80;;;7.10;99.90;;;;;;5026321;28;20179;-58
2023/03/09 03:52:29;;;;;;;1.17;0.80;;;7.00;99.90;;;;;;5028606;28;20180;-57
2023/03/09 03:54:54;;;;;;;0.80;0.80;;;7.00;99.90;;;;;;5025250;28;20430;-58
2023/03/09 03:57:22;;;;;;;1.00;0.90;;;7.00;99.90;;;;;;5026555;28;20203;-56
2023/03/09 03:59:48;;;;;;;0.80;0.80;;;6.90;99.90;;;;;;5023274;28;20233;-57
2023/03/09 04:02:14;;;;;;;1.20;1.10;;;6.90;99.90;;;;;;5025667;28;20553;-57
2023/03/09 04:04:39;;;;;;;1.07;0.90;;;6.90;99.90;;;;;;5022754;28;20920;-57
2023/03/09 04:07:05;;;;;;;0.93;0.90;;;6.80;99.90;;;;;;5024985;28;20206;-57
2023/03/09 04:09:31;;;;;;;0.80;0.80;;;6.80;99.90;;;;;;5023516;28;20246;-56
2023/03/09 04:11:56;;;;;;;1.00;0.90;;;6.80;99.90;;;;;;5019829;28;20175;-57
2023/03/09 04:14:22;;;;;;;0.90;0.70;;;6.80;99.90;;;;;;5025319;28;20188;-57
2023/03/09 04:16:47;;;;;;;0.83;0.70;;;6.80;99.90;;;;;;5021655;28;20211;-56
2023/03/09 04:19:13;;;;;;;2.27;0.90;;;6.80;99.90;;;;;;5030756;28;20259;-57
2023/03/09 04:21:38;;;;;;;1.47;0.80;;;6.80;99.90;;;;;;5025061;28;20206;-56
2023/03/09 04:24:04;;;;;;;4.53;0.80;;;6.80;99.90;;;;;;5021951;28;20180;-57
2023/03/09 04:26:30;;;;;;;0.80;0.80;;;6.80;99.90;;;;;;5024588;28;20590;-57
2023/03/09 04:28:56;;;;;;;0.70;0.70;;;6.80;99.90;;;;;;5030683;28;20413;-56
2023/03/09 04:31:21;;;;;;;1.40;0.80;;;6.80;99.90;;;;;;5021859;28;20267;-55
2023/03/09 04:33:47;;;;;;;0.80;0.80;;;6.80;99.90;;;;;;5030675;28;20541;-56
2023/03/09 04:36:12;;;;;;;1.33;1.00;;;6.80;99.90;;;;;;5029268;28;20202;-59
2023/03/09 04:38:38;;;;;;;2.00;0.80;;;6.80;99.90;;;;;;5025843;28;20214;-57
2023/03/09 04:41:04;;;;;;;0.87;0.87;;;6.80;99.90;;;;;;5020903;28;20204;-57
2023/03/09 04:43:29;;;;;;;1.37;0.93;;;6.90;99.90;;;;;;5030181;28;20270;-56
2023/03/09 04:45:55;;;;;;;2.00;1.70;;;6.90;99.90;;;;;;5033295;28;20749;-56
2023/03/09 04:48:21;;;;;;;1.10;1.03;;;6.90;99.90;;;;;;5031111;28;20199;-57
2023/03/09 04:50:46;;;;;;;0.80;0.77;;;6.90;99.90;;;;;;5024242;28;20721;-56
2023/03/09 04:53:12;;;;;;;1.90;0.90;;;6.90;99.90;;;;;;5019686;28;20180;-59
2023/03/09 04:55:37;;;;;;;4.20;1.40;;;6.90;99.90;;;;;;5011615;28;20416;-57
2023/03/09 04:58:04;;;;;;;1.53;1.00;;;6.90;99.90;;;;;;5016726;28;20204;-59
2023/03/09 05:00:30;;;;;;;1.00;0.90;;;7.00;99.90;;;;;;5023256;28;21034;-56
2023/03/09 05:02:56;;;;;;;1.20;1.10;;;7.00;99.90;;;;;;5024934;28;20539;-56
2023/03/09 05:05:22;;;;;;;4.00;1.40;;;7.00;99.90;;;;;;5031858;28;20431;-55
2023/03/09 05:07:47;;;;;;;1.53;0.93;;;7.00;99.90;;;;;;5025495;28;20250;-58
2023/03/09 05:10:13;;;;;;;1.10;1.00;;;6.90;99.90;;;;;;5020438;28;20172;-56
2023/03/09 05:12:39;;;;;;;1.47;0.90;;;6.90;99.90;;;;;;5013202;28;20968;-57
2023/03/09 05:15:05;;;;;;;4.00;1.00;;;6.90;99.90;;;;;;5020512;28;20188;-57
2023/03/09 05:17:32;;;;;;;1.93;1.10;;;6.90;99.90;;;;;;5012132;28;20195;-55
2023/03/09 05:19:57;;;;;;;4.03;1.70;;;6.90;99.90;;;;;;5016152;28;20434;-56
2023/03/09 05:22:23;;;;;;;4.17;1.00;;;6.90;99.90;;;;;;5017560;28;20508;-60
2023/03/09 05:24:49;;;;;;;4.10;1.30;;;6.90;99.90;;;;;;5016081;28;20184;-58
2023/03/09 05:27:14;;;;;;;7.40;1.13;;;6.80;99.90;;;;;;5017211;28;20617;-56
2023/03/09 05:29:41;;;;;;;4.67;1.03;;;6.80;99.90;;;;;;5009214;28;20206;-57
2023/03/09 05:32:07;;;;;;;4.93;1.10;;;6.80;99.90;;;;;;5017755;28;20245;-56
2023/03/09 05:34:34;;;;;;;4.17;1.20;;;6.80;99.90;;;;;;5019263;28;20544;-55
2023/03/09 05:37:00;;;;;;;3.80;1.20;;;6.80;99.90;;;;;;5017684;28;21813;-56
2023/03/09 05:39:27;;;;;;;1.63;1.00;;;6.80;99.90;;;;;;5017098;28;21098;-57
2023/03/09 05:41:53;;;;;;;2.73;1.07;;;6.80;99.90;;;;;;5008180;28;21033;-57
2023/03/09 05:44:18;;;;;;;6.93;1.20;;;6.70;99.90;;;;;;5020314;28;20439;-57
2023/03/09 05:46:44;;;;;;;1.43;1.17;;;6.70;99.90;;;;;;5015228;28;20445;-57
2023/03/09 05:49:10;;;;;;;1.67;1.40;;;6.70;99.90;;;;;;5015038;28;20192;-57
2023/03/09 05:51:36;;;;;;;1.77;1.03;;;6.70;99.90;;;;;;5014575;28;20673;-57
2023/03/09 05:54:01;;;;;;;2.30;1.30;;;6.70;99.90;;;;;;5018400;28;20447;-58
2023/03/09 05:56:27;;;;;;;1.80;1.13;;;6.70;99.90;;;;;;5012074;28;20194;-57
2023/03/09 05:58:53;;;;;;;2.90;1.93;;;6.70;99.90;;;;;;5012842;28;20187;-55
2023/03/09 06:01:25;;;;;;;1.90;1.50;;;6.60;99.90;;;;;;5017271;28;20195;-58
2023/03/09 06:03:51;;;;;;;3.20;1.40;;;6.60;99.90;;;;;;5018210;28;20463;-56
2023/03/09 06:06:18;;;;;;;1.20;1.10;;;6.60;99.90;;;;;;5016881;28;20446;-56
2023/03/09 06:08:44;;;;;;;1.53;1.17;;;6.60;99.90;;;;;;5017320;28;20451;-57
2023/03/09 06:11:10;;;;;;;3.23;1.23;;;6.60;99.90;;;;;;5014569;28;20432;-56
2023/03/09 06:13:36;;;;;;;2.13;1.40;;;6.60;99.90;;;;;;5025572;28;20651;-56
2023/03/09 06:16:07;;;;;;;1.73;1.23;;;6.60;99.90;;;;;;5013671;28;20450;-59
2023/03/09 06:18:33;;;;;;;4.43;1.50;;;6.60;99.90;;;;;;5015880;28;20230;-56
2023/03/09 06:21:03;;;;;;;2.87;1.73;;;6.60;99.90;;;;;;5012643;28;20822;-56
2023/03/09 06:23:30;;;;;;;6.90;1.90;;;6.60;99.90;;;;;;5017256;28;20188;-55
2023/03/09 06:25:56;;;;;;;2.67;1.20;;;6.60;99.90;;;;;;5023073;28;20855;-58
2023/03/09 06:28:22;;;;;;;3.03;1.40;;;6.60;99.90;;;;;;5017131;28;20455;-56
2023/03/09 06:30:48;;;;;;;1.70;1.60;;;6.60;99.90;;;;;;5024247;28;20445;-58
2023/03/09 06:33:14;;;;;;;4.80;1.50;;;6.60;99.90;;;;;;5022425;28;20445;-56
2023/03/09 06:35:40;;;;;;;3.27;1.30;;;6.60;99.90;;;;;;5019993;28;20187;-56
2023/03/09 06:38:06;;;;;;;4.77;1.47;;;6.70;99.90;;;;;;5025327;28;20446;-56
2023/03/09 06:40:31;;;;;;;4.33;1.77;;;6.70;99.90;;;;;;5015812;28;20176;-57
2023/03/09 06:42:57;;;;;;;2.80;1.80;;;6.70;99.90;;;;;;5024731;28;20576;-57
2023/03/09 06:45:23;;;;;;;10.70;1.60;;;6.80;99.90;;;;;;5025752;28;20222;-57
2023/03/09 06:47:52;;;;;;;5.50;1.87;;;6.80;99.90;;;;;;5026928;28;20477;-56
2023/03/09 06:50:18;;;;;;;4.53;1.60;;;6.80;99.90;;;;;;5025524;28;20179;-57
2023/03/09 06:52:43;;;;;;;6.00;1.77;;;6.90;99.90;;;;;;5023798;28;20473;-56
2023/03/09 06:55:09;;;;;;;2.20;1.60;;;7.00;99.90;;;;;;5019424;28;20191;-56
2023/03/09 06:57:36;;;;;;;10.57;2.30;;;7.00;99.90;;;;;;5028848;28;20207;-56
2023/03/09 07:00:04;;;;;;;3.43;1.70;;;7.10;99.90;;;;;;5030015;28;20429;-55
2023/03/09 07:02:31;;;;;;;4.77;1.60;;;7.20;99.90;;;;;;5022291;28;20498;-56
2023/03/09 07:04:56;;;;;;;5.80;1.90;;;7.20;99.90;;;;;;5022903;28;20441;-54
2023/03/09 07:07:22;;;;;;;6.70;2.43;;;7.30;99.90;;;;;;5026066;28;20481;-53
2023/03/09 07:09:48;;;;;;;6.50;2.10;;;7.30;99.90;;;;;;5015791;28;20263;-53
2023/03/09 07:12:13;;;;;;;4.63;1.90;;;7.30;99.90;;;;;;5028981;28;20245;-53
2023/03/09 07:14:39;;;;;;;6.60;2.60;;;7.30;99.90;;;;;;5025777;28;20257;-55
2023/03/09 07:17:05;;;;;;;5.80;3.27;;;7.40;99.90;;;;;;5028999;28;20689;-56
2023/03/09 07:19:30;;;;;;;6.60;2.90;;;7.40;99.90;;;;;;5027566;28;20180;-54
2023/03/09 07:21:56;;;;;;;6.73;2.30;;;7.40;99.90;;;;;;5028014;28;20207;-55
2023/03/09 07:24:22;;;;;;;9.23;1.97;;;7.50;99.90;;;;;;5021000;28;20176;-54
2023/03/09 07:26:48;;;;;;;9.43;2.13;;;7.60;99.90;;;;;;5025715;28;20265;-54
2023/03/09 07:29:14;;;;;;;3.90;2.00;;;7.60;99.90;;;;;;5031438;28;20469;-57
2023/03/09 07:31:40;;;;;;;7.20;2.17;;;7.70;99.90;;;;;;5019358;28;20951;-56
2023/03/09 07:34:06;;;;;;;5.53;1.80;;;7.70;99.90;;;;;;5024103;28;20438;-55
2023/03/09 07:36:32;;;;;;;7.40;2.20;;;7.70;99.90;;;;;;5018231;28;20740;-52
2023/03/09 07:38:57;;;;;;;9.37;2.20;;;7.70;99.90;;;;;;5012007;28;20529;-55
2023/03/09 07:41:23;;;;;;;3.40;1.90;;;7.80;99.90;;;;;;5027084;28;20211;-53
2023/03/09 07:43:49;;;;;;;5.50;1.80;;;7.80;99.90;;;;;;5020636;28;20602;-54
2023/03/09 07:46:17;;;;;;;6.60;2.43;;;7.80;99.90;;;;;;5023327;28;20365;-55
2023/03/09 07:48:44;;;;;;;3.40;1.60;;;7.90;99.90;;;;;;5028301;28;20622;-53
2023/03/09 07:51:10;;;;;;;4.57;1.70;;;7.90;99.90;;;;;;5020045;28;20458;-55
2023/03/09 07:53:38;;;;;;;3.60;2.00;;;8.00;99.90;;;;;;5024225;28;20474;-55
2023/03/09 07:56:05;;;;;;;5.23;1.63;;;8.10;99.90;;;;;;5017632;28;20446;-54
2023/03/09 07:58:31;;;;;;;8.53;1.90;;;8.10;99.90;;;;;;5030480;28;20453;-53
2023/03/09 08:00:57;;;;;;;2.93;1.43;;;8.10;99.90;;;;;;5026379;28;20817;-54
2023/03/09 08:03:24;;;;;;;7.50;1.90;;;8.10;99.90;;;;;;5022890;28;20443;-54
2023/03/09 08:05:54;;;;;;;2.73;1.30;;;8.10;99.90;;;;;;5022126;28;20663;-53
2023/03/09 08:08:31;;;;;;;4.00;1.40;;;8.10;99.90;;;;;;5013212;28;20455;-54
2023/03/09 08:10:57;;;;;;;7.23;2.00;;;8.10;99.90;;;;;;5024405;28;21119;-56
2023/03/09 08:13:23;;;;;;;2.07;1.70;;;8.20;99.90;;;;;;5024436;28;20443;-53
2023/03/09 08:15:50;;;;;;;3.60;1.97;;;8.30;99.90;;;;;;5021236;28;20435;-55
2023/03/09 08:18:20;;;;;;;6.50;1.63;;;8.30;99.90;;;;;;5022052;28;20480;-56
2023/03/09 08:20:46;;;;;;;2.97;1.87;;;8.40;99.90;;;;;;5020126;28;20497;-54
2023/03/09 08:23:12;;;;;;;3.70;1.70;;;8.40;99.90;;;;;;5022290;28;20466;-55
2023/03/09 08:25:39;;;;;;;3.93;1.60;;;8.50;99.90;;;;;;5019933;28;20438;-54
2023/03/09 08:28:05;;;;;;;6.23;2.17;;;8.50;99.90;;;;;;5021707;28;20461;-54
2023/03/09 08:30:31;;;;;;;4.77;1.50;;;8.50;99.90;;;;;;5009780;28;20446;-53
2023/03/09 08:32:57;;;;;;;4.77;1.70;;;8.60;99.90;;;;;;5028673;28;21123;-54
2023/03/09 08:35:27;;;;;;;2.37;1.50;;;8.60;99.90;;;;;;5029139;28;20982;-54
2023/03/09 08:37:53;;;;;;;3.03;2.00;;;8.60;99.90;;;;;;5011309;28;20565;-53
2023/03/09 08:40:19;;;;;;;5.17;1.23;;;8.60;99.90;;;;;;5025415;28;20510;-54
2023/03/09 08:42:44;;;;;;;1.43;1.30;;;8.60;99.90;;;;;;5026451;28;20243;-53
2023/03/09 08:45:11;;;;;;;2.80;1.70;;;8.50;99.90;;;;;;5029532;28;20171;-54
2023/03/09 08:47:38;;;;;;;2.53;1.10;;;8.40;99.90;;;;;;5018749;28;20573;-55
2023/03/09 08:50:04;;;;;;;2.20;1.10;;;8.30;99.90;;;;;;5024660;28;20474;-52
2023/03/09 08:52:36;;;;;;;3.60;1.10;;;8.30;99.90;;;;;;5020920;28;20439;-54
2023/03/09 08:55:03;;;;;;;7.97;1.37;;;8.20;99.90;;;;;;5020985;28;20434;-52
2023/03/09 08:57:29;;;;;;;2.20;1.20;;;8.20;99.90;;;;;;5025394;28;20527;-53
2023/03/09 08:59:54;;;;;;;2.53;2.37;;;8.20;99.90;;;;;;5022193;28;20442;-54
2023/03/09 09:02:20;;;;;;;1.70;1.27;;;8.20;99.90;;;;;;5023625;28;20459;-53
2023/03/09 09:04:46;;;;;;;3.50;1.70;;;8.40;99.90;;;;;;5030477;28;20190;-53
2023/03/09 09:07:14;;;;;;;6.00;1.33;;;8.40;99.90;;;;;;5025386;28;20207;-53
2023/03/09 09:09:40;;;;;;;5.53;1.67;;;8.60;99.90;;;;;;5020343;28;20180;-54
2023/03/09 09:12:06;;;;;;;4.90;1.70;;;8.70;99.90;;;;;;5023857;28;20446;-54
2023/03/09 09:14:32;;;;;;;4.47;1.47;;;8.80;99.90;;;;;;5029083;28;20450;-55
2023/03/09 09:16:58;;;;;;;2.73;1.47;;;8.90;99.90;;;;;;5022127;28;20466;-54
2023/03/09 09:19:24;;;;;;;4.30;1.57;;;9.10;99.90;;;;;;5024873;28;20520;-54
2023/03/09 09:21:52;;;;;;;5.37;1.97;;;9.20;99.90;;;;;;5015456;28;20474;-55
2023/03/09 09:24:18;;;;;;;3.60;1.80;;;9.30;99.90;;;;;;5019246;28;20546;-53
2023/03/09 09:26:44;;;;;;;5.63;1.37;;;9.30;99.90;;;;;;5025256;28;20441;-54
2023/03/09 09:29:10;;;;;;;4.13;1.60;;;9.40;99.90;;;;;;5023603;28;20445;-55
2023/03/09 09:31:37;;;;;;;3.97;1.80;;;9.40;99.90;;;;;;5022778;28;20441;-53
2023/03/09 09:34:02;;;;;;;7.20;1.50;;;9.40;99.90;;;;;;5026290;28;21183;-54
2023/03/09 09:36:28;;;;;;;3.10;1.90;;;9.40;99.90;;;;;;5027562;28;20736;-53
2023/03/09 09:38:54;;;;;;;5.13;1.17;;;9.30;99.90;;;;;;5019870;28;20183;-53
2023/03/09 09:41:25;;;;;;;1.73;1.50;;;9.40;99.90;;;;;;5024456;28;20805;-53
2023/03/09 09:43:56;;;;;;;2.47;1.30;;;9.30;99.90;;;;;;5026637;28;20478;-53
2023/03/09 09:46:23;;;;;;;6.20;2.37;;;9.30;99.90;;;;;;5023597;28;20429;-53
2023/03/09 09:48:50;;;;;;;6.60;1.70;;;9.20;99.90;;;;;;5006142;28;20460;-54
2023/03/09 09:51:18;;;;;;;3.23;1.53;;;9.20;99.90;;;;;;5025660;28;20511;-56
2023/03/09 09:54:06;;;;;;;4.87;1.90;;;9.20;99.90;;;;;;5023409;28;20947;-54
2023/03/09 09:56:47;;;;;;;2.87;1.80;;;9.20;99.90;;;;;;5019506;28;20494;-55
2023/03/09 09:59:29;;;;;;;5.53;1.60;;;9.10;99.90;;;;;;5023685;28;20442;-53
2023/03/09 10:01:59;;;;;;;2.37;1.80;;;9.10;99.90;;;;;;5027453;28;20550;-53
2023/03/09 10:04:40;;;;;;;5.30;1.40;;;9.30;99.90;;;;;;5033241;28;20517;-54
2023/03/09 10:07:25;;;;;;;10.30;2.30;;;9.40;99.90;;;;;;5022475;28;20461;-56
2023/03/09 10:10:01;;;;;;;5.47;1.60;;;9.50;99.90;;;;;;5025922;28;20915;-53
2023/03/09 10:12:27;;;;;;;5.00;1.70;;;9.60;99.90;;;;;;5026216;28;20465;-53
2023/03/09 10:15:04;;;;;;;6.30;1.53;;;9.70;99.90;;;;;;5030828;28;20469;-53
2023/03/09 10:17:35;;;;;;;8.20;1.70;;;9.90;99.90;;;;;;5031863;28;20701;-53
2023/03/09 10:20:32;;;;;;;3.70;1.63;;;10.10;99.90;;;;;;5042605;28;20445;-54
2023/03/09 10:22:59;;;;;;;4.53;1.80;;;10.30;99.90;;;;;;5023329;28;20478;-54
2023/03/09 10:25:28;;;;;;;8.23;1.57;;;10.50;99.90;;;;;;5030036;28;20453;-54
2023/03/09 10:28:02;;;;;;;6.13;1.70;;;10.70;99.90;;;;;;5022708;28;20458;-54
2023/03/09 10:30:51;;;;;;;6.27;1.83;;;10.80;99.90;;;;;;5024607;28;20517;-54
2023/03/09 10:33:26;;;;;;;4.13;1.60;;;10.90;97.20;;;;;;5028570;28;20464;-54
2023/03/09 10:36:06;;;;;;;4.40;1.73;;;11.00;97.50;;;;;;5028152;28;20869;-54
2023/03/09 10:38:33;;;;;;;7.63;1.67;;;11.10;97.10;;;;;;5007724;28;20490;-56
2023/03/09 10:40:59;;;;;;;13.97;1.83;;;11.10;89.00;;;;;;5021030;28;20450;-54
2023/03/09 10:43:30;;;;;;;6.90;2.07;;;11.00;88.50;;;;;;5028695;28;20489;-54
2023/03/09 10:46:04;;;;;;;6.93;2.63;;;11.00;90.60;;;;;;5025650;28;20180;-56
2023/03/09 10:48:30;;;;;;;6.50;1.90;;;11.00;91.20;;;;;;5032986;28;20445;-54
2023/03/09 10:51:04;;;;;;;4.13;1.77;;;11.20;92.80;;;;;;5025958;28;20953;-55
2023/03/09 10:53:33;;;;;;;2.80;1.67;;;11.40;89.20;;;;;;5017869;28;20279;-53
2023/03/09 10:56:14;;;;;;;9.60;1.87;;;11.40;90.00;;;;;;5016939;28;20541;-53
2023/03/09 10:58:40;;;;;;;3.27;1.30;;;11.50;83.50;;;;;;5024386;28;20454;-54
2023/03/09 11:01:12;;;;;;;6.10;1.87;;;11.40;83.40;;;;;;5021628;28;20445;-55
2023/03/09 11:03:39;;;;;;;3.23;1.30;;;11.40;82.40;;;;;;5033579;28;20172;-54
2023/03/09 11:06:10;;;;;;;3.80;1.77;;;11.40;80.60;;;;;;5028838;28;20954;-54
2023/03/09 11:08:36;;;;;;;10.77;1.90;;;11.40;88.90;;;;;;5019027;28;20443;-54
2023/03/09 11:11:05;;;;;;;5.40;1.60;;;11.60;83.20;;;;;;5023131;28;20434;-53
2023/03/09 11:13:31;;;;;;;4.23;2.03;;;11.70;84.10;;;;;;5012783;28;20434;-54
2023/03/09 11:16:22;;;;;;;4.83;1.40;;;11.70;79.50;;;;;;5025408;28;21264;-54
2023/03/09 11:18:48;;;;;;;5.27;1.63;;;11.80;79.40;;;;;;5027840;28;20549;-53
2023/03/09 11:21:23;;;;;;;7.60;1.80;;;11.80;78.70;;;;;;5026364;28;20441;-54
2023/03/09 11:23:53;;;;;;;3.07;1.63;;;12.00;81.50;;;;;;5028690;28;20488;-54
2023/03/09 11:26:36;;;;;;;6.13;2.20;;;12.20;81.90;;;;;;5020018;28;20479;-55
2023/03/09 11:29:21;;;;;;;7.53;1.63;;;12.30;82.40;;;;;;5027866;28;20445;-55
2023/03/09 11:31:46;;;;;;;7.30;1.40;;;12.50;82.30;;;;;;5024588;28;20933;-53
2023/03/09 11:34:21;;;;;;;4.60;2.00;;;12.80;75.00;;;;;;5026633;28;20443;-54
2023/03/09 11:36:58;;;;;;;8.97;1.80;;;13.00;75.00;;;;;;5024617;28;20191;-54
2023/03/09 11:39:37;;;;;;;7.67;1.40;;;13.20;69.60;;;;;;5024268;28;21054;-54
2023/03/09 11:42:09;;;;;;;1.57;1.20;;;13.40;66.80;;;;;;5025800;28;20466;-55
2023/03/09 11:44:41;;;;;;;2.40;1.10;;;13.60;63.30;;;;;;5021749;28;20438;-53
2023/03/09 11:47:36;;;;;;;5.07;1.50;;;13.60;62.70;;;;;;5029526;28;20539;-54
2023/03/09 11:50:12;;;;;;;6.57;1.50;;;13.60;61.90;;;;;;5025493;28;20414;-53
2023/03/09 11:52:52;;;;;;;3.23;1.33;;;13.80;62.50;;;;;;5021411;28;20496;-55
2023/03/09 11:55:22;;;;;;;6.83;1.40;;;13.70;59.30;;;;;;5029927;28;21010;-56
2023/03/09 11:57:54;;;;;;;3.33;1.50;;;13.40;58.30;;;;;;5027788;28;20454;-56
2023/03/09 12:00:22;;;;;;;4.80;1.73;;;13.00;59.50;;;;;;5020207;28;20447;-56
2023/03/09 12:02:57;;;;;;;1.47;1.10;;;12.80;61.00;;;;;;5026595;28;20995;-55
2023/03/09 12:05:26;;;;;;;3.63;1.30;;;12.80;60.30;;;;;;5024139;28;20433;-53
2023/03/09 12:08:03;;;;;;;2.60;1.20;;;12.60;62.00;;;;;;5008274;28;20493;-53
2023/03/09 12:10:32;;;;;;;3.53;1.10;;;12.60;62.00;;;;;;5024089;28;20422;-54
2023/03/09 12:13:19;;;;;;;1.80;1.10;;;12.70;61.70;;;;;;5023455;28;20488;-54
2023/03/09 12:15:54;;;;;;;2.30;1.10;;;12.90;60.60;;;;;;5020817;28;20442;-54
2023/03/09 12:18:32;;;;;;;1.53;0.80;;;12.90;59.70;;;;;;5025617;28;20572;-55
2023/03/09 12:21:04;;;;;;;2.70;0.90;;;12.80;59.60;;;;;;5022536;28;21046;-54
2023/03/09 12:23:36;;;;;;;2.00;1.10;;;12.40;60.10;;;;;;5024303;28;20445;-56
2023/03/09 12:26:05;;;;;;;1.60;0.93;;;12.10;61.80;;;;;;5021671;28;20427;-54
2023/03/09 12:28:31;;;;;;;1.57;1.47;;;11.80;64.00;;;;;;5020347;28;20711;-54
2023/03/09 12:30:57;;;;;;;2.00;1.30;;;11.60;67.10;;;;;;5019035;28;21005;-54
2023/03/09 12:33:41;;;;;;;2.87;1.30;;;11.40;70.80;;;;;;5024560;28;20426;-55
2023/03/09 12:36:38;;;;;;;7.47;1.20;;;11.40;71.90;;;;;;5019940;28;20499;-55
2023/03/09 12:39:22;;;;;;;3.13;1.30;;;11.30;74.20;;;;;;5025771;28;20454;-56
2023/03/09 12:42:16;;;;;;;1.53;1.00;;;11.30;75.50;;;;;;5023258;28;21005;-54
2023/03/09 12:44:44;;;;;;;3.40;1.33;;;11.20;72.60;;;;;;5012948;28;20813;-55
2023/03/09 12:47:43;;;;;;;6.17;1.57;;;11.20;69.80;;;;;;5021464;28;20455;-54
2023/03/09 12:50:21;;;;;;;3.20;1.10;;;11.20;76.20;;;;;;5018503;28;20431;-54
2023/03/09 12:52:46;;;;;;;1.90;1.20;;;11.70;68.80;;;;;;5024498;28;20438;-54
2023/03/09 12:55:15;;;;;;;3.03;1.20;;;12.10;66.20;;;;;;5027095;28;20442;-53
2023/03/09 12:57:42;;;;;;;3.70;1.20;;;12.40;62.40;;;;;;5018748;28;20618;-53
2023/03/09 13:00:30;;;;;;;1.60;1.03;;;12.20;62.90;;;;;;5019401;28;20446;-56
2023/03/09 13:03:15;;;;;;;2.20;1.10;;;12.00;66.00;;;;;;5027856;28;20462;-55